sensor_id;sensor_type;location;lat;lon;timestamp;P1;durP1;ratioP1;P2;durP2;ratioP2
12792;SDS011;6460;42.684;23.260;2022-08-11T00:02:22;6.67;;;6.07;;
12792;SDS011;6460;42.684;23.260;2022-08-11T00:04:52;6.43;;;5.73;;
12792;SDS011;6460;42.684;23.260;2022-08-11T00:07:21;6.37;;;5.87;;
12792;SDS011;6460;42.684;23.260;2022-08-11T00:09:50;7.00;;;6.43;;
12792;SDS011;6460;42.684;23.260;2022-08-11T00:12:20;6.80;;;6.10;;
12792;SDS011;6460;42.684;23.260;2022-08-11T00:14:54;7.50;;;6.73;;
12792;SDS011;6460;42.684;23.260;2022-08-11T00:17:26;6.83;;;6.20;;
12792;SDS011;6460;42.684;23.260;2022-08-11T00:19:59;6.97;;;6.33;;
12792;SDS011;6460;42.684;23.260;2022-08-11T00:22:29;7.47;;;6.37;;
12792;SDS011;6460;42.684;23.260;2022-08-11T00:24:59;6.97;;;6.27;;
12792;SDS011;6460;42.684;23.260;2022-08-11T00:27:36;7.27;;;6.57;;
12792;SDS011;6460;42.684;23.260;2022-08-11T00:30:06;7.13;;;6.43;;
12792;SDS011;6460;42.684;23.260;2022-08-11T00:32:34;6.40;;;5.80;;
12792;SDS011;6460;42.684;23.260;2022-08-11T00:35:04;7.37;;;6.20;;
12792;SDS011;6460;42.684;23.260;2022-08-11T00:37:36;6.30;;;5.80;;
12792;SDS011;6460;42.684;23.260;2022-08-11T00:40:06;6.20;;;5.60;;
12792;SDS011;6460;42.684;23.260;2022-08-11T00:42:47;7.40;;;6.70;;
12792;SDS011;6460;42.684;23.260;2022-08-11T00:45:26;7.13;;;6.43;;
12792;SDS011;6460;42.684;23.260;2022-08-11T00:48:01;6.83;;;5.97;;
12792;SDS011;6460;42.684;23.260;2022-08-11T00:50:39;6.73;;;6.13;;
12792;SDS011;6460;42.684;23.260;2022-08-11T00:53:25;6.53;;;6.03;;
12792;SDS011;6460;42.684;23.260;2022-08-11T00:56:22;6.90;;;6.30;;
12792;SDS011;6460;42.684;23.260;2022-08-11T01:02:36;6.20;;;5.60;;
12792;SDS011;6460;42.684;23.260;2022-08-11T01:11:55;6.43;;;5.90;;
12792;SDS011;6460;42.684;23.260;2022-08-11T01:20:58;7.00;;;6.40;;
12792;SDS011;6460;42.684;23.260;2022-08-11T01:23:48;6.40;;;5.90;;
12792;SDS011;6460;42.684;23.260;2022-08-11T01:30:09;6.90;;;6.37;;
12792;SDS011;6460;42.684;23.260;2022-08-11T01:33:00;6.60;;;6.00;;
12792;SDS011;6460;42.684;23.260;2022-08-11T01:36:04;6.93;;;6.30;;
12792;SDS011;6460;42.684;23.260;2022-08-11T01:39:05;7.30;;;6.70;;
12792;SDS011;6460;42.684;23.260;2022-08-11T01:42:04;7.10;;;6.40;;
12792;SDS011;6460;42.684;23.260;2022-08-11T01:45:25;7.37;;;6.67;;
12792;SDS011;6460;42.684;23.260;2022-08-11T01:48:01;7.57;;;6.80;;
12792;SDS011;6460;42.684;23.260;2022-08-11T01:51:00;7.03;;;6.47;;
12792;SDS011;6460;42.684;23.260;2022-08-11T01:53:37;7.40;;;6.80;;
12792;SDS011;6460;42.684;23.260;2022-08-11T01:56:32;7.47;;;6.77;;
12792;SDS011;6460;42.684;23.260;2022-08-11T01:59:17;9.20;;;6.97;;
12792;SDS011;6460;42.684;23.260;2022-08-11T02:01:55;7.53;;;6.93;;
12792;SDS011;6460;42.684;23.260;2022-08-11T02:05:10;7.13;;;6.53;;
12792;SDS011;6460;42.684;23.260;2022-08-11T02:07:51;7.37;;;6.77;;
12792;SDS011;6460;42.684;23.260;2022-08-11T02:10:25;6.90;;;6.27;;
12792;SDS011;6460;42.684;23.260;2022-08-11T02:13:19;9.73;;;7.30;;
12792;SDS011;6460;42.684;23.260;2022-08-11T02:16:02;7.63;;;6.93;;
12792;SDS011;6460;42.684;23.260;2022-08-11T02:18:39;7.07;;;6.40;;
12792;SDS011;6460;42.684;23.260;2022-08-11T02:21:30;7.07;;;6.47;;
12792;SDS011;6460;42.684;23.260;2022-08-11T02:24:25;7.00;;;6.40;;
12792;SDS011;6460;42.684;23.260;2022-08-11T02:27:01;7.80;;;7.10;;
12792;SDS011;6460;42.684;23.260;2022-08-11T02:29:33;7.10;;;6.50;;
12792;SDS011;6460;42.684;23.260;2022-08-11T02:32:16;6.93;;;6.33;;
12792;SDS011;6460;42.684;23.260;2022-08-11T02:35:08;7.37;;;6.67;;
12792;SDS011;6460;42.684;23.260;2022-08-11T02:37:47;7.40;;;6.60;;
12792;SDS011;6460;42.684;23.260;2022-08-11T02:40:23;7.33;;;6.63;;
12792;SDS011;6460;42.684;23.260;2022-08-11T02:43:06;8.27;;;6.90;;
12792;SDS011;6460;42.684;23.260;2022-08-11T02:45:51;7.67;;;6.93;;
12792;SDS011;6460;42.684;23.260;2022-08-11T02:48:32;8.97;;;7.10;;
12792;SDS011;6460;42.684;23.260;2022-08-11T02:51:28;7.80;;;7.10;;
12792;SDS011;6460;42.684;23.260;2022-08-11T02:54:06;8.37;;;7.57;;
12792;SDS011;6460;42.684;23.260;2022-08-11T02:56:44;8.13;;;7.43;;
12792;SDS011;6460;42.684;23.260;2022-08-11T02:59:21;8.30;;;7.50;;
12792;SDS011;6460;42.684;23.260;2022-08-11T03:02:12;8.27;;;6.93;;
12792;SDS011;6460;42.684;23.260;2022-08-11T03:04:50;7.23;;;6.47;;
12792;SDS011;6460;42.684;23.260;2022-08-11T03:07:29;7.47;;;6.87;;
12792;SDS011;6460;42.684;23.260;2022-08-11T03:10:02;7.63;;;6.93;;
12792;SDS011;6460;42.684;23.260;2022-08-11T03:12:39;7.47;;;6.83;;
12792;SDS011;6460;42.684;23.260;2022-08-11T03:15:31;7.23;;;6.60;;
12792;SDS011;6460;42.684;23.260;2022-08-11T03:18:27;6.90;;;6.30;;
12792;SDS011;6460;42.684;23.260;2022-08-11T03:21:01;8.07;;;6.47;;
12792;SDS011;6460;42.684;23.260;2022-08-11T03:23:52;7.50;;;6.90;;
12792;SDS011;6460;42.684;23.260;2022-08-11T03:26:27;7.17;;;6.43;;
12792;SDS011;6460;42.684;23.260;2022-08-11T03:29:05;7.17;;;6.57;;
12792;SDS011;6460;42.684;23.260;2022-08-11T03:31:39;8.47;;;6.60;;
12792;SDS011;6460;42.684;23.260;2022-08-11T03:34:13;7.70;;;7.03;;
12792;SDS011;6460;42.684;23.260;2022-08-11T03:36:58;8.47;;;7.67;;
12792;SDS011;6460;42.684;23.260;2022-08-11T03:40:12;9.07;;;8.27;;
12792;SDS011;6460;42.684;23.260;2022-08-11T03:43:06;9.10;;;7.37;;
12792;SDS011;6460;42.684;23.260;2022-08-11T03:45:51;8.20;;;7.40;;
12792;SDS011;6460;42.684;23.260;2022-08-11T03:48:28;8.10;;;7.30;;
12792;SDS011;6460;42.684;23.260;2022-08-11T03:51:06;7.93;;;7.20;;
12792;SDS011;6460;42.684;23.260;2022-08-11T03:53:48;8.43;;;7.57;;
12792;SDS011;6460;42.684;23.260;2022-08-11T03:59:48;9.80;;;7.47;;
12792;SDS011;6460;42.684;23.260;2022-08-11T04:05:45;8.60;;;7.43;;
12792;SDS011;6460;42.684;23.260;2022-08-11T04:08:45;8.47;;;7.50;;
12792;SDS011;6460;42.684;23.260;2022-08-11T04:11:48;8.17;;;7.37;;
12792;SDS011;6460;42.684;23.260;2022-08-11T04:14:41;12.70;;;8.57;;
12792;SDS011;6460;42.684;23.260;2022-08-11T04:21:10;8.60;;;7.73;;
12792;SDS011;6460;42.684;23.260;2022-08-11T04:24:15;8.40;;;7.60;;
12792;SDS011;6460;42.684;23.260;2022-08-11T04:27:00;9.50;;;7.90;;
12792;SDS011;6460;42.684;23.260;2022-08-11T04:29:49;8.87;;;8.00;;
12792;SDS011;6460;42.684;23.260;2022-08-11T04:32:35;8.83;;;7.63;;
12792;SDS011;6460;42.684;23.260;2022-08-11T04:35:37;9.00;;;8.10;;
12792;SDS011;6460;42.684;23.260;2022-08-11T04:38:21;8.20;;;7.40;;
12792;SDS011;6460;42.684;23.260;2022-08-11T04:41:18;9.27;;;8.37;;
12792;SDS011;6460;42.684;23.260;2022-08-11T04:47:43;11.90;;;8.50;;
12792;SDS011;6460;42.684;23.260;2022-08-11T04:50:44;11.93;;;8.83;;
12792;SDS011;6460;42.684;23.260;2022-08-11T04:53:51;12.43;;;9.37;;
12792;SDS011;6460;42.684;23.260;2022-08-11T04:56:51;13.47;;;9.10;;
12792;SDS011;6460;42.684;23.260;2022-08-11T05:00:03;14.67;;;9.70;;
12792;SDS011;6460;42.684;23.260;2022-08-11T05:03:16;10.33;;;8.17;;
12792;SDS011;6460;42.684;23.260;2022-08-11T05:12:03;10.67;;;8.60;;
12792;SDS011;6460;42.684;23.260;2022-08-11T05:14:40;11.47;;;7.77;;
12792;SDS011;6460;42.684;23.260;2022-08-11T05:17:36;8.20;;;7.50;;
12792;SDS011;6460;42.684;23.260;2022-08-11T05:20:24;8.53;;;7.63;;
12792;SDS011;6460;42.684;23.260;2022-08-11T05:23:09;8.97;;;8.20;;
12792;SDS011;6460;42.684;23.260;2022-08-11T05:25:57;9.47;;;8.30;;
12792;SDS011;6460;42.684;23.260;2022-08-11T05:28:48;9.40;;;8.40;;
12792;SDS011;6460;42.684;23.260;2022-08-11T05:31:39;9.07;;;7.30;;
12792;SDS011;6460;42.684;23.260;2022-08-11T05:34:26;11.30;;;7.70;;
12792;SDS011;6460;42.684;23.260;2022-08-11T05:37:19;10.10;;;7.63;;
12792;SDS011;6460;42.684;23.260;2022-08-11T05:39:52;8.50;;;7.73;;
12792;SDS011;6460;42.684;23.260;2022-08-11T05:42:43;8.47;;;7.00;;
12792;SDS011;6460;42.684;23.260;2022-08-11T05:45:33;8.30;;;7.53;;
12792;SDS011;6460;42.684;23.260;2022-08-11T05:48:18;8.20;;;7.50;;
12792;SDS011;6460;42.684;23.260;2022-08-11T05:51:05;11.70;;;7.83;;
12792;SDS011;6460;42.684;23.260;2022-08-11T05:53:52;13.20;;;11.50;;
12792;SDS011;6460;42.684;23.260;2022-08-11T05:56:42;8.83;;;7.93;;
12792;SDS011;6460;42.684;23.260;2022-08-11T05:59:20;10.97;;;8.77;;
12792;SDS011;6460;42.684;23.260;2022-08-11T06:01:49;8.73;;;7.83;;
12792;SDS011;6460;42.684;23.260;2022-08-11T06:04:18;8.20;;;7.40;;
12792;SDS011;6460;42.684;23.260;2022-08-11T06:06:52;8.93;;;7.63;;
12792;SDS011;6460;42.684;23.260;2022-08-11T06:09:28;8.70;;;7.80;;
12792;SDS011;6460;42.684;23.260;2022-08-11T06:11:59;8.43;;;7.50;;
12792;SDS011;6460;42.684;23.260;2022-08-11T06:14:30;8.33;;;7.53;;
12792;SDS011;6460;42.684;23.260;2022-08-11T06:16:59;8.23;;;7.43;;
12792;SDS011;6460;42.684;23.260;2022-08-11T06:19:31;8.47;;;7.57;;
12792;SDS011;6460;42.684;23.260;2022-08-11T06:22:00;12.20;;;8.00;;
12792;SDS011;6460;42.684;23.260;2022-08-11T06:24:29;8.90;;;7.43;;
12792;SDS011;6460;42.684;23.260;2022-08-11T06:26:58;10.07;;;8.03;;
12792;SDS011;6460;42.684;23.260;2022-08-11T06:29:26;8.20;;;7.43;;
12792;SDS011;6460;42.684;23.260;2022-08-11T06:31:56;10.40;;;8.07;;
12792;SDS011;6460;42.684;23.260;2022-08-11T06:34:30;8.30;;;7.20;;
12792;SDS011;6460;42.684;23.260;2022-08-11T06:39:51;9.47;;;7.80;;
12792;SDS011;6460;42.684;23.260;2022-08-11T06:45:22;8.80;;;7.20;;
12792;SDS011;6460;42.684;23.260;2022-08-11T06:47:55;8.33;;;6.43;;
12792;SDS011;6460;42.684;23.260;2022-08-11T06:50:25;7.07;;;6.23;;
12792;SDS011;6460;42.684;23.260;2022-08-11T06:53:11;8.70;;;6.63;;
12792;SDS011;6460;42.684;23.260;2022-08-11T06:55:44;8.57;;;7.53;;
12792;SDS011;6460;42.684;23.260;2022-08-11T06:58:31;7.00;;;6.30;;
12792;SDS011;6460;42.684;23.260;2022-08-11T07:01:19;5.77;;;5.27;;
12792;SDS011;6460;42.684;23.260;2022-08-11T07:03:58;6.80;;;6.10;;
12792;SDS011;6460;42.684;23.260;2022-08-11T07:06:38;7.23;;;5.83;;
12792;SDS011;6460;42.684;23.260;2022-08-11T07:12:58;6.60;;;6.00;;
12792;SDS011;6460;42.684;23.260;2022-08-11T07:15:44;6.83;;;5.87;;
12792;SDS011;6460;42.684;23.260;2022-08-11T07:18:17;7.73;;;7.07;;
12792;SDS011;6460;42.684;23.260;2022-08-11T07:21:10;7.40;;;6.67;;
12792;SDS011;6460;42.684;23.260;2022-08-11T07:23:58;6.97;;;6.37;;
12792;SDS011;6460;42.684;23.260;2022-08-11T07:26:47;6.17;;;5.57;;
12792;SDS011;6460;42.684;23.260;2022-08-11T07:29:36;6.57;;;5.70;;
12792;SDS011;6460;42.684;23.260;2022-08-11T07:32:12;7.23;;;6.63;;
12792;SDS011;6460;42.684;23.260;2022-08-11T07:34:47;7.23;;;6.50;;
12792;SDS011;6460;42.684;23.260;2022-08-11T07:37:20;6.77;;;6.00;;
12792;SDS011;6460;42.684;23.260;2022-08-11T07:39:51;5.80;;;5.40;;
12792;SDS011;6460;42.684;23.260;2022-08-11T07:42:20;9.77;;;6.77;;
12792;SDS011;6460;42.684;23.260;2022-08-11T07:44:52;8.53;;;7.67;;
12792;SDS011;6460;42.684;23.260;2022-08-11T07:47:39;6.03;;;5.43;;
12792;SDS011;6460;42.684;23.260;2022-08-11T07:50:25;5.37;;;4.80;;
12792;SDS011;6460;42.684;23.260;2022-08-11T07:53:12;5.20;;;4.80;;
12792;SDS011;6460;42.684;23.260;2022-08-11T07:55:41;6.00;;;5.40;;
12792;SDS011;6460;42.684;23.260;2022-08-11T07:58:09;9.77;;;7.40;;
12792;SDS011;6460;42.684;23.260;2022-08-11T08:00:55;6.40;;;5.00;;
12792;SDS011;6460;42.684;23.260;2022-08-11T08:03:41;7.00;;;4.70;;
12792;SDS011;6460;42.684;23.260;2022-08-11T08:06:26;6.27;;;5.13;;
12792;SDS011;6460;42.684;23.260;2022-08-11T08:09:14;5.30;;;4.90;;
12792;SDS011;6460;42.684;23.260;2022-08-11T08:12:01;5.53;;;5.10;;
12792;SDS011;6460;42.684;23.260;2022-08-11T08:14:47;5.60;;;5.20;;
12792;SDS011;6460;42.684;23.260;2022-08-11T08:17:34;13.10;;;5.43;;
12792;SDS011;6460;42.684;23.260;2022-08-11T08:20:15;8.30;;;6.13;;
12792;SDS011;6460;42.684;23.260;2022-08-11T08:22:44;5.37;;;4.77;;
12792;SDS011;6460;42.684;23.260;2022-08-11T08:25:15;5.57;;;5.07;;
12792;SDS011;6460;42.684;23.260;2022-08-11T08:27:43;6.10;;;5.30;;
12792;SDS011;6460;42.684;23.260;2022-08-11T08:30:12;5.47;;;5.07;;
12792;SDS011;6460;42.684;23.260;2022-08-11T08:32:57;5.77;;;4.87;;
12792;SDS011;6460;42.684;23.260;2022-08-11T08:35:25;5.33;;;4.93;;
12792;SDS011;6460;42.684;23.260;2022-08-11T08:37:54;5.77;;;5.27;;
12792;SDS011;6460;42.684;23.260;2022-08-11T08:40:24;5.37;;;4.67;;
12792;SDS011;6460;42.684;23.260;2022-08-11T08:42:52;6.03;;;5.53;;
12792;SDS011;6460;42.684;23.260;2022-08-11T08:45:22;5.13;;;4.73;;
12792;SDS011;6460;42.684;23.260;2022-08-11T08:47:53;7.40;;;6.53;;
12792;SDS011;6460;42.684;23.260;2022-08-11T08:50:26;9.50;;;6.23;;
12792;SDS011;6460;42.684;23.260;2022-08-11T08:53:11;7.37;;;5.53;;
12792;SDS011;6460;42.684;23.260;2022-08-11T08:55:41;5.73;;;5.23;;
12792;SDS011;6460;42.684;23.260;2022-08-11T08:58:11;5.43;;;4.97;;
12792;SDS011;6460;42.684;23.260;2022-08-11T09:00:41;5.40;;;4.90;;
12792;SDS011;6460;42.684;23.260;2022-08-11T09:03:10;5.70;;;5.20;;
12792;SDS011;6460;42.684;23.260;2022-08-11T09:05:39;5.23;;;4.83;;
12792;SDS011;6460;42.684;23.260;2022-08-11T09:08:06;5.07;;;4.67;;
12792;SDS011;6460;42.684;23.260;2022-08-11T09:10:34;5.10;;;4.67;;
12792;SDS011;6460;42.684;23.260;2022-08-11T09:13:03;5.23;;;4.83;;
12792;SDS011;6460;42.684;23.260;2022-08-11T09:15:33;5.53;;;4.70;;
12792;SDS011;6460;42.684;23.260;2022-08-11T09:18:02;5.10;;;4.70;;
12792;SDS011;6460;42.684;23.260;2022-08-11T09:20:34;4.93;;;4.43;;
12792;SDS011;6460;42.684;23.260;2022-08-11T09:23:03;5.57;;;4.87;;
12792;SDS011;6460;42.684;23.260;2022-08-11T09:25:50;5.17;;;4.60;;
12792;SDS011;6460;42.684;23.260;2022-08-11T09:28:38;5.73;;;4.63;;
12792;SDS011;6460;42.684;23.260;2022-08-11T09:31:08;5.03;;;4.60;;
12792;SDS011;6460;42.684;23.260;2022-08-11T09:33:37;4.63;;;4.33;;
12792;SDS011;6460;42.684;23.260;2022-08-11T09:36:05;5.30;;;4.90;;
12792;SDS011;6460;42.684;23.260;2022-08-11T09:38:47;6.80;;;4.80;;
12792;SDS011;6460;42.684;23.260;2022-08-11T09:41:33;7.20;;;5.63;;
12792;SDS011;6460;42.684;23.260;2022-08-11T09:44:03;4.97;;;4.57;;
12792;SDS011;6460;42.684;23.260;2022-08-11T09:46:48;6.13;;;5.27;;
12792;SDS011;6460;42.684;23.260;2022-08-11T09:49:17;6.83;;;5.47;;
12792;SDS011;6460;42.684;23.260;2022-08-11T09:51:45;5.47;;;5.07;;
12792;SDS011;6460;42.684;23.260;2022-08-11T09:54:15;6.20;;;5.60;;
12792;SDS011;6460;42.684;23.260;2022-08-11T09:56:43;6.47;;;5.73;;
12792;SDS011;6460;42.684;23.260;2022-08-11T09:59:29;5.70;;;5.20;;
12792;SDS011;6460;42.684;23.260;2022-08-11T10:01:57;5.30;;;4.90;;
12792;SDS011;6460;42.684;23.260;2022-08-11T10:04:27;5.47;;;5.00;;
12792;SDS011;6460;42.684;23.260;2022-08-11T10:06:59;5.33;;;4.83;;
12792;SDS011;6460;42.684;23.260;2022-08-11T10:09:27;5.00;;;4.53;;
12792;SDS011;6460;42.684;23.260;2022-08-11T10:12:00;5.80;;;5.30;;
12792;SDS011;6460;42.684;23.260;2022-08-11T10:14:30;5.87;;;5.10;;
12792;SDS011;6460;42.684;23.260;2022-08-11T10:17:16;5.80;;;5.23;;
12792;SDS011;6460;42.684;23.260;2022-08-11T10:19:46;5.70;;;4.90;;
12792;SDS011;6460;42.684;23.260;2022-08-11T10:22:14;5.73;;;5.23;;
12792;SDS011;6460;42.684;23.260;2022-08-11T10:25:01;7.07;;;5.33;;
12792;SDS011;6460;42.684;23.260;2022-08-11T10:27:46;12.47;;;5.97;;
12792;SDS011;6460;42.684;23.260;2022-08-11T10:30:19;5.00;;;4.33;;
12792;SDS011;6460;42.684;23.260;2022-08-11T10:33:03;6.20;;;5.20;;
12792;SDS011;6460;42.684;23.260;2022-08-11T10:35:48;5.67;;;5.17;;
12792;SDS011;6460;42.684;23.260;2022-08-11T10:38:15;6.73;;;4.87;;
12792;SDS011;6460;42.684;23.260;2022-08-11T10:40:44;5.07;;;4.43;;
12792;SDS011;6460;42.684;23.260;2022-08-11T10:43:32;5.73;;;4.53;;
12792;SDS011;6460;42.684;23.260;2022-08-11T10:46:00;4.90;;;4.50;;
12792;SDS011;6460;42.684;23.260;2022-08-11T10:48:44;5.60;;;4.37;;
12792;SDS011;6460;42.684;23.260;2022-08-11T10:51:12;4.77;;;4.37;;
12792;SDS011;6460;42.684;23.260;2022-08-11T10:53:43;4.90;;;4.50;;
12792;SDS011;6460;42.684;23.260;2022-08-11T10:56:30;6.77;;;4.63;;
12792;SDS011;6460;42.684;23.260;2022-08-11T10:59:17;4.60;;;4.20;;
12792;SDS011;6460;42.684;23.260;2022-08-11T11:01:47;5.00;;;4.40;;
12792;SDS011;6460;42.684;23.260;2022-08-11T11:04:16;4.33;;;4.03;;
12792;SDS011;6460;42.684;23.260;2022-08-11T11:06:48;6.23;;;4.90;;
12792;SDS011;6460;42.684;23.260;2022-08-11T11:09:23;5.03;;;4.63;;
12792;SDS011;6460;42.684;23.260;2022-08-11T11:11:59;5.30;;;4.80;;
12792;SDS011;6460;42.684;23.260;2022-08-11T11:14:46;5.67;;;5.20;;
12792;SDS011;6460;42.684;23.260;2022-08-11T11:17:34;5.60;;;4.60;;
12792;SDS011;6460;42.684;23.260;2022-08-11T11:20:22;5.80;;;4.83;;
12792;SDS011;6460;42.684;23.260;2022-08-11T11:22:52;19.27;;;15.00;;
12792;SDS011;6460;42.684;23.260;2022-08-11T11:25:24;9.30;;;6.30;;
12792;SDS011;6460;42.684;23.260;2022-08-11T11:28:09;5.37;;;4.60;;
12792;SDS011;6460;42.684;23.260;2022-08-11T11:30:45;5.00;;;4.50;;
12792;SDS011;6460;42.684;23.260;2022-08-11T11:33:24;6.83;;;4.87;;
12792;SDS011;6460;42.684;23.260;2022-08-11T11:36:07;5.50;;;4.53;;
12792;SDS011;6460;42.684;23.260;2022-08-11T11:38:41;6.97;;;4.67;;
12792;SDS011;6460;42.684;23.260;2022-08-11T11:41:08;5.00;;;4.60;;
12792;SDS011;6460;42.684;23.260;2022-08-11T11:43:51;5.20;;;4.63;;
12792;SDS011;6460;42.684;23.260;2022-08-11T11:46:21;6.13;;;5.20;;
12792;SDS011;6460;42.684;23.260;2022-08-11T11:48:51;5.10;;;4.63;;
12792;SDS011;6460;42.684;23.260;2022-08-11T11:51:19;5.10;;;4.70;;
12792;SDS011;6460;42.684;23.260;2022-08-11T11:53:47;5.60;;;5.10;;
12792;SDS011;6460;42.684;23.260;2022-08-11T11:56:15;5.43;;;4.53;;
12792;SDS011;6460;42.684;23.260;2022-08-11T11:58:42;5.57;;;5.07;;
12792;SDS011;6460;42.684;23.260;2022-08-11T12:01:26;13.03;;;5.60;;
12792;SDS011;6460;42.684;23.260;2022-08-11T12:03:55;5.47;;;4.97;;
12792;SDS011;6460;42.684;23.260;2022-08-11T12:06:24;5.13;;;4.70;;
12792;SDS011;6460;42.684;23.260;2022-08-11T12:08:52;4.70;;;4.30;;
12792;SDS011;6460;42.684;23.260;2022-08-11T12:11:21;4.87;;;4.30;;
12792;SDS011;6460;42.684;23.260;2022-08-11T12:14:08;5.57;;;4.70;;
12792;SDS011;6460;42.684;23.260;2022-08-11T12:16:36;5.33;;;4.63;;
12792;SDS011;6460;42.684;23.260;2022-08-11T12:19:07;5.47;;;4.97;;
12792;SDS011;6460;42.684;23.260;2022-08-11T12:21:37;4.77;;;4.27;;
12792;SDS011;6460;42.684;23.260;2022-08-11T12:24:27;5.50;;;4.83;;
12792;SDS011;6460;42.684;23.260;2022-08-11T12:27:13;6.00;;;4.90;;
12792;SDS011;6460;42.684;23.260;2022-08-11T12:29:48;5.20;;;4.70;;
12792;SDS011;6460;42.684;23.260;2022-08-11T12:32:17;4.93;;;4.43;;
12792;SDS011;6460;42.684;23.260;2022-08-11T12:34:46;4.80;;;4.27;;
12792;SDS011;6460;42.684;23.260;2022-08-11T12:37:14;4.53;;;4.23;;
12792;SDS011;6460;42.684;23.260;2022-08-11T12:39:47;5.57;;;3.97;;
12792;SDS011;6460;42.684;23.260;2022-08-11T12:42:36;4.30;;;4.00;;
12792;SDS011;6460;42.684;23.260;2022-08-11T12:45:22;5.93;;;4.50;;
12792;SDS011;6460;42.684;23.260;2022-08-11T12:47:54;5.30;;;4.80;;
12792;SDS011;6460;42.684;23.260;2022-08-11T12:50:48;5.20;;;4.30;;
12792;SDS011;6460;42.684;23.260;2022-08-11T12:53:35;4.13;;;3.70;;
12792;SDS011;6460;42.684;23.260;2022-08-11T12:56:08;5.50;;;4.27;;
12792;SDS011;6460;42.684;23.260;2022-08-11T12:58:54;5.27;;;4.13;;
12792;SDS011;6460;42.684;23.260;2022-08-11T13:01:39;4.23;;;3.90;;
12792;SDS011;6460;42.684;23.260;2022-08-11T13:04:25;5.10;;;4.30;;
12792;SDS011;6460;42.684;23.260;2022-08-11T13:07:13;4.00;;;3.70;;
12792;SDS011;6460;42.684;23.260;2022-08-11T13:09:42;4.73;;;4.13;;
12792;SDS011;6460;42.684;23.260;2022-08-11T13:12:11;5.27;;;3.50;;
12792;SDS011;6460;42.684;23.260;2022-08-11T13:14:56;5.03;;;3.80;;
12792;SDS011;6460;42.684;23.260;2022-08-11T13:17:25;5.17;;;3.90;;
12792;SDS011;6460;42.684;23.260;2022-08-11T13:19:54;5.57;;;4.23;;
12792;SDS011;6460;42.684;23.260;2022-08-11T13:22:24;6.27;;;4.33;;
12792;SDS011;6460;42.684;23.260;2022-08-11T13:24:52;4.97;;;4.03;;
12792;SDS011;6460;42.684;23.260;2022-08-11T13:27:20;13.47;;;3.90;;
12792;SDS011;6460;42.684;23.260;2022-08-11T13:29:49;3.97;;;3.57;;
12792;SDS011;6460;42.684;23.260;2022-08-11T13:32:39;3.43;;;3.17;;
12792;SDS011;6460;42.684;23.260;2022-08-11T13:35:07;3.97;;;3.67;;
12792;SDS011;6460;42.684;23.260;2022-08-11T13:37:40;4.17;;;3.77;;
12792;SDS011;6460;42.684;23.260;2022-08-11T13:40:10;4.87;;;4.37;;
12792;SDS011;6460;42.684;23.260;2022-08-11T13:42:39;4.13;;;3.80;;
12792;SDS011;6460;42.684;23.260;2022-08-11T13:45:07;3.97;;;3.60;;
12792;SDS011;6460;42.684;23.260;2022-08-11T13:47:35;4.50;;;3.60;;
12792;SDS011;6460;42.684;23.260;2022-08-11T13:50:04;4.67;;;3.93;;
12792;SDS011;6460;42.684;23.260;2022-08-11T13:52:33;4.00;;;3.60;;
12792;SDS011;6460;42.684;23.260;2022-08-11T13:55:02;4.27;;;3.87;;
12792;SDS011;6460;42.684;23.260;2022-08-11T13:57:30;4.00;;;3.60;;
12792;SDS011;6460;42.684;23.260;2022-08-11T13:59:59;7.07;;;4.00;;
12792;SDS011;6460;42.684;23.260;2022-08-11T14:02:35;4.47;;;4.07;;
12792;SDS011;6460;42.684;23.260;2022-08-11T14:05:07;4.30;;;3.90;;
12792;SDS011;6460;42.684;23.260;2022-08-11T14:07:41;4.03;;;3.63;;
12792;SDS011;6460;42.684;23.260;2022-08-11T14:10:15;4.13;;;3.83;;
12792;SDS011;6460;42.684;23.260;2022-08-11T14:12:47;4.80;;;4.40;;
12792;SDS011;6460;42.684;23.260;2022-08-11T14:15:35;4.63;;;4.23;;
12792;SDS011;6460;42.684;23.260;2022-08-11T14:18:12;4.00;;;3.70;;
12792;SDS011;6460;42.684;23.260;2022-08-11T14:20:43;4.50;;;4.10;;
12792;SDS011;6460;42.684;23.260;2022-08-11T14:23:33;4.17;;;3.87;;
12792;SDS011;6460;42.684;23.260;2022-08-11T14:26:06;4.67;;;4.27;;
12792;SDS011;6460;42.684;23.260;2022-08-11T14:28:50;3.83;;;3.50;;
12792;SDS011;6460;42.684;23.260;2022-08-11T14:31:19;4.87;;;4.47;;
12792;SDS011;6460;42.684;23.260;2022-08-11T14:33:49;5.00;;;4.53;;
12792;SDS011;6460;42.684;23.260;2022-08-11T14:36:20;4.33;;;3.93;;
12792;SDS011;6460;42.684;23.260;2022-08-11T14:38:49;5.50;;;3.90;;
12792;SDS011;6460;42.684;23.260;2022-08-11T14:41:20;4.50;;;4.10;;
12792;SDS011;6460;42.684;23.260;2022-08-11T14:44:06;4.40;;;4.00;;
12792;SDS011;6460;42.684;23.260;2022-08-11T14:46:53;4.17;;;3.87;;
12792;SDS011;6460;42.684;23.260;2022-08-11T14:49:31;4.40;;;4.10;;
12792;SDS011;6460;42.684;23.260;2022-08-11T14:52:00;4.80;;;4.40;;
12792;SDS011;6460;42.684;23.260;2022-08-11T14:54:30;4.73;;;4.40;;
12792;SDS011;6460;42.684;23.260;2022-08-11T14:57:16;4.70;;;4.23;;
12792;SDS011;6460;42.684;23.260;2022-08-11T14:59:45;4.70;;;4.30;;
12792;SDS011;6460;42.684;23.260;2022-08-11T15:02:14;4.93;;;4.40;;
12792;SDS011;6460;42.684;23.260;2022-08-11T15:05:01;5.23;;;4.20;;
12792;SDS011;6460;42.684;23.260;2022-08-11T15:07:31;5.20;;;4.70;;
12792;SDS011;6460;42.684;23.260;2022-08-11T15:10:00;5.00;;;4.60;;
12792;SDS011;6460;42.684;23.260;2022-08-11T15:12:32;5.33;;;4.47;;
12792;SDS011;6460;42.684;23.260;2022-08-11T15:15:00;5.17;;;4.63;;
12792;SDS011;6460;42.684;23.260;2022-08-11T15:17:46;5.27;;;4.37;;
12792;SDS011;6460;42.684;23.260;2022-08-11T15:20:16;5.10;;;4.70;;
12792;SDS011;6460;42.684;23.260;2022-08-11T15:23:02;4.67;;;4.23;;
12792;SDS011;6460;42.684;23.260;2022-08-11T15:25:48;4.80;;;4.40;;
12792;SDS011;6460;42.684;23.260;2022-08-11T15:28:20;5.07;;;4.53;;
12792;SDS011;6460;42.684;23.260;2022-08-11T15:31:06;4.50;;;4.10;;
12792;SDS011;6460;42.684;23.260;2022-08-11T15:33:51;4.80;;;4.40;;
12792;SDS011;6460;42.684;23.260;2022-08-11T15:36:40;5.17;;;4.17;;
12792;SDS011;6460;42.684;23.260;2022-08-11T15:39:29;5.03;;;4.33;;
12792;SDS011;6460;42.684;23.260;2022-08-11T15:42:02;4.10;;;3.80;;
12792;SDS011;6460;42.684;23.260;2022-08-11T15:44:53;4.40;;;4.00;;
12792;SDS011;6460;42.684;23.260;2022-08-11T15:47:47;5.60;;;4.20;;
12792;SDS011;6460;42.684;23.260;2022-08-11T15:50:22;4.27;;;3.97;;
12792;SDS011;6460;42.684;23.260;2022-08-11T15:52:55;4.70;;;4.00;;
12792;SDS011;6460;42.684;23.260;2022-08-11T15:55:27;5.40;;;3.97;;
12792;SDS011;6460;42.684;23.260;2022-08-11T15:57:57;4.50;;;4.10;;
12792;SDS011;6460;42.684;23.260;2022-08-11T16:00:47;4.57;;;4.17;;
12792;SDS011;6460;42.684;23.260;2022-08-11T16:03:34;4.00;;;3.70;;
12792;SDS011;6460;42.684;23.260;2022-08-11T16:06:24;4.43;;;4.10;;
12792;SDS011;6460;42.684;23.260;2022-08-11T16:08:52;4.77;;;4.13;;
12792;SDS011;6460;42.684;23.260;2022-08-11T16:11:23;4.43;;;4.00;;
12792;SDS011;6460;42.684;23.260;2022-08-11T16:13:52;4.47;;;4.17;;
12792;SDS011;6460;42.684;23.260;2022-08-11T16:16:39;4.40;;;4.10;;
12792;SDS011;6460;42.684;23.260;2022-08-11T16:19:08;4.67;;;3.70;;
12792;SDS011;6460;42.684;23.260;2022-08-11T16:21:36;4.03;;;3.70;;
12792;SDS011;6460;42.684;23.260;2022-08-11T16:24:08;4.13;;;3.83;;
12792;SDS011;6460;42.684;23.260;2022-08-11T16:26:40;4.37;;;3.97;;
12792;SDS011;6460;42.684;23.260;2022-08-11T16:29:09;4.57;;;4.03;;
12792;SDS011;6460;42.684;23.260;2022-08-11T16:31:37;4.63;;;4.17;;
12792;SDS011;6460;42.684;23.260;2022-08-11T16:34:07;8.47;;;4.50;;
12792;SDS011;6460;42.684;23.260;2022-08-11T16:36:55;6.53;;;4.00;;
12792;SDS011;6460;42.684;23.260;2022-08-11T16:39:41;5.27;;;3.70;;
12792;SDS011;6460;42.684;23.260;2022-08-11T16:42:10;4.10;;;3.77;;
12792;SDS011;6460;42.684;23.260;2022-08-11T16:44:55;4.17;;;3.70;;
12792;SDS011;6460;42.684;23.260;2022-08-11T16:47:57;5.17;;;4.27;;